createdAt,value
2022-12-17T00:00:23.152Z,-3
2022-12-17T00:01:19.503Z,-2.9
2022-12-17T00:02:19.768Z,-2.8
2022-12-17T00:03:19.778Z,-2.8
2022-12-17T00:04:19.752Z,-2.7
2022-12-17T00:05:19.748Z,-2.7
2022-12-17T00:06:19.891Z,-2.7
2022-12-17T00:07:19.901Z,-2.8
2022-12-17T00:08:20.059Z,-2.7
2022-12-17T00:09:20.135Z,-2.7
2022-12-17T00:10:20.184Z,-2.7
2022-12-17T00:11:20.270Z,-2.8
2022-12-17T00:12:20.319Z,-2.9
2022-12-17T00:13:20.414Z,-2.9
2022-12-17T00:14:23.737Z,-2.9
2022-12-17T00:15:20.463Z,-2.9
2022-12-17T00:16:20.598Z,-2.9
2022-12-17T00:17:20.612Z,-3
2022-12-17T00:18:20.690Z,-2.9
2022-12-17T00:19:20.777Z,-2.9
2022-12-17T00:20:20.831Z,-2.9
2022-12-17T00:21:21.948Z,-2.8
2022-12-17T00:22:20.972Z,-2.8
2022-12-17T00:23:26.868Z,-2.9
2022-12-17T00:24:20.991Z,-2.9
2022-12-17T00:25:26.020Z,-3
2022-12-17T00:26:29.258Z,-3
2022-12-17T00:27:30.953Z,-2.9
2022-12-17T00:28:21.256Z,-2.9
2022-12-17T00:29:23.196Z,-2.7
2022-12-17T00:30:21.683Z,-2.8
2022-12-17T00:31:21.736Z,-3
2022-12-17T00:32:21.529Z,-3.1
2022-12-17T00:33:21.963Z,-3.1
2022-12-17T00:34:21.580Z,-3.1
2022-12-17T00:35:21.741Z,-3.2
2022-12-17T00:36:21.717Z,-3.1
2022-12-17T00:37:23.288Z,-3.1
2022-12-17T00:38:21.831Z,-3.2
2022-12-17T00:39:22.466Z,-3.4
2022-12-17T00:40:21.914Z,-3.4
2022-12-17T00:41:22.036Z,-3.3
2022-12-17T00:42:22.856Z,-3.5
2022-12-17T00:43:22.693Z,-3.5
2022-12-17T00:44:22.135Z,-3.5
2022-12-17T00:45:22.447Z,-3.5
2022-12-17T00:46:22.285Z,-3.5
2022-12-17T00:47:23.391Z,-3.3
2022-12-17T00:48:22.363Z,-3.3
2022-12-17T00:49:22.473Z,-3.4
2022-12-17T00:50:22.469Z,-3.4
2022-12-17T00:51:22.603Z,-3.4
2022-12-17T00:52:22.542Z,-3.4
2022-12-17T00:53:22.722Z,-3.5
2022-12-17T00:54:22.705Z,-3.5
2022-12-17T00:55:22.831Z,-3.5
2022-12-17T00:56:22.752Z,-3.4
2022-12-17T00:57:24.241Z,-3.5
2022-12-17T00:58:22.824Z,-3.5
2022-12-17T00:59:23.809Z,-3.5
2022-12-17T01:00:22.903Z,-3.7
2022-12-17T01:01:23.038Z,-3.7
2022-12-17T01:02:23.131Z,-3.7
2022-12-17T01:03:26.295Z,-3.7
2022-12-17T01:04:23.109Z,-3.7
2022-12-17T01:05:23.179Z,-3.5
2022-12-17T01:06:23.191Z,-3.4
2022-12-17T01:07:23.229Z,-3.5
2022-12-17T01:08:23.379Z,-3.6
2022-12-17T01:09:23.307Z,-3.8
2022-12-17T01:10:23.370Z,-3.7
2022-12-17T01:11:23.742Z,-3.8
2022-12-17T01:12:23.858Z,-3.8
2022-12-17T01:13:23.550Z,-3.8
2022-12-17T01:14:23.592Z,-3.7
2022-12-17T01:15:26.195Z,-3.7
2022-12-17T01:16:23.814Z,-3.9
2022-12-17T01:17:24.164Z,-4
2022-12-17T01:18:26.358Z,-3.9
2022-12-17T01:19:24.119Z,-3.9
2022-12-17T01:20:24.052Z,-3.9
2022-12-17T01:21:25.675Z,-3.8
2022-12-17T01:22:24.189Z,-3.6
2022-12-17T01:23:25.039Z,-3.7
2022-12-17T01:24:26.229Z,-3.8
2022-12-17T01:25:25.141Z,-3.7
2022-12-17T01:26:24.443Z,-3.8
2022-12-17T01:27:25.055Z,-3.7
2022-12-17T01:28:24.547Z,-3.7
2022-12-17T01:29:25.676Z,-3.5
2022-12-17T01:30:26.875Z,-3.6
2022-12-17T01:31:27.375Z,-3.7
2022-12-17T01:32:24.760Z,-3.8
2022-12-17T01:33:26.585Z,-3.8
2022-12-17T01:34:24.886Z,-3.7
2022-12-17T01:35:25.679Z,-3.5
2022-12-17T01:36:26.955Z,-3.6
2022-12-17T01:37:25.134Z,-3.7
2022-12-17T01:38:25.120Z,-3.6
2022-12-17T01:39:27.905Z,-3.8
2022-12-17T01:40:25.233Z,-4
2022-12-17T01:41:25.883Z,-4
2022-12-17T01:42:26.501Z,-4
2022-12-17T01:43:25.532Z,-4
2022-12-17T01:44:25.447Z,-3.8
2022-12-17T01:45:27.974Z,-3.8
2022-12-17T01:46:25.563Z,-4.1
2022-12-17T01:47:25.650Z,-4
2022-12-17T01:48:25.682Z,-4
2022-12-17T01:49:25.732Z,-3.9
2022-12-17T01:50:25.772Z,-3.8
2022-12-17T01:51:28.913Z,-3.9
2022-12-17T01:52:25.884Z,-4.1
2022-12-17T01:53:25.879Z,-4
2022-12-17T01:54:27.539Z,-3.9
2022-12-17T01:55:25.965Z,-3.9
2022-12-17T01:56:26.060Z,-3.8
2022-12-17T01:57:29.423Z,-4
2022-12-17T01:58:26.147Z,-4
2022-12-17T01:59:26.143Z,-4.1
2022-12-17T02:00:26.309Z,-3.8
2022-12-17T02:01:26.517Z,-3.6
2022-12-17T02:02:26.404Z,-3.8
2022-12-17T02:03:27.152Z,-3.9
2022-12-17T02:04:26.417Z,-3.9
2022-12-17T02:05:26.431Z,-3.8
2022-12-17T02:06:26.873Z,-3.8
2022-12-17T02:07:26.593Z,-4
2022-12-17T02:08:26.612Z,-4.1
2022-12-17T02:09:29.292Z,-4.1
2022-12-17T02:10:26.655Z,-4.1
2022-12-17T02:11:26.718Z,-4.1
2022-12-17T02:12:26.858Z,-4.3
2022-12-17T02:13:26.812Z,-4.5
2022-12-17T02:14:26.856Z,-4.5
2022-12-17T02:15:27.152Z,-4.5
2022-12-17T02:16:27.024Z,-4.5
2022-12-17T02:17:26.960Z,-4.5
2022-12-17T02:18:27.040Z,-4.6
2022-12-17T02:19:27.150Z,-4.4
2022-12-17T02:20:27.130Z,-4.4
2022-12-17T02:21:27.287Z,-4.3
2022-12-17T02:22:27.208Z,-4.2
2022-12-17T02:23:27.317Z,-4.3
2022-12-17T02:24:27.254Z,-4.1
2022-12-17T02:25:27.319Z,-4.1
2022-12-17T02:26:27.390Z,-4.4
2022-12-17T02:27:27.843Z,-4.4
2022-12-17T02:28:27.576Z,-4.6
2022-12-17T02:29:27.692Z,-4.6
2022-12-17T02:30:27.889Z,-4.5
2022-12-17T02:31:27.785Z,-4.5
2022-12-17T02:32:27.956Z,-4.4
2022-12-17T02:33:28.873Z,-4.4
2022-12-17T02:34:27.982Z,-4.3
2022-12-17T02:35:28.040Z,-4.3
2022-12-17T02:36:28.087Z,-4.3
2022-12-17T02:37:28.148Z,-4.4
2022-12-17T02:38:28.219Z,-4.4
2022-12-17T02:39:30.390Z,-4.4
2022-12-17T02:40:28.356Z,-4.5
2022-12-17T02:41:28.428Z,-4.3
2022-12-17T02:42:28.452Z,-4.3
2022-12-17T02:43:28.536Z,-4.4
2022-12-17T02:44:28.595Z,-4.5
2022-12-17T02:45:29.493Z,-4.5
2022-12-17T02:46:28.832Z,-4.6
2022-12-17T02:47:28.759Z,-4.7
2022-12-17T02:48:28.835Z,-4.7
2022-12-17T02:49:29.114Z,-4.6
2022-12-17T02:50:28.955Z,-4.5
2022-12-17T02:51:29.096Z,-4.5
2022-12-17T02:52:33.379Z,-4.6
2022-12-17T02:53:29.146Z,-4.6
2022-12-17T02:54:29.183Z,-4.6
2022-12-17T02:55:29.267Z,-4.6
2022-12-17T02:56:29.301Z,-4.5
2022-12-17T02:57:29.341Z,-4.5
2022-12-17T02:58:29.435Z,-4.4
2022-12-17T02:59:29.433Z,-4.4
2022-12-17T03:00:29.521Z,-4.6
2022-12-17T03:01:29.682Z,-4.6
2022-12-17T03:02:29.822Z,-4.6
2022-12-17T03:03:29.761Z,-4.6
2022-12-17T03:04:29.702Z,-4.6
2022-12-17T03:05:44.788Z,-4.7
2022-12-17T03:06:29.818Z,-4.7
2022-12-17T03:07:29.869Z,-4.6
2022-12-17T03:08:29.939Z,-4.5
2022-12-17T03:09:29.930Z,-4.6
2022-12-17T03:10:30.007Z,-4.6
2022-12-17T03:11:35.072Z,-4.6
2022-12-17T03:12:30.078Z,-4.6
2022-12-17T03:13:30.199Z,-4.6
2022-12-17T03:14:30.247Z,-4.5
2022-12-17T03:15:30.321Z,-4.4
2022-12-17T03:16:34.156Z,-4.6
2022-12-17T03:17:30.326Z,-4.8
2022-12-17T03:18:30.377Z,-4.6
2022-12-17T03:19:30.482Z,-4.7
2022-12-17T03:20:30.606Z,-4.7
2022-12-17T03:21:30.524Z,-4.8
2022-12-17T03:22:30.598Z,-4.6
2022-12-17T03:23:30.731Z,-4.6
2022-12-17T03:24:30.683Z,-4.4
2022-12-17T03:25:31.423Z,-4.5
2022-12-17T03:26:30.804Z,-4.6
2022-12-17T03:27:31.890Z,-4.8
2022-12-17T03:28:31.022Z,-4.8
2022-12-17T03:29:30.902Z,-4.5
2022-12-17T03:30:34.674Z,-4.6
2022-12-17T03:31:31.113Z,-4.9
2022-12-17T03:32:31.085Z,-4.8
2022-12-17T03:33:31.196Z,-4.8
2022-12-17T03:34:31.205Z,-4.6
2022-12-17T03:35:31.252Z,-4.6
2022-12-17T03:36:31.323Z,-4.9
2022-12-17T03:37:31.538Z,-4.9
2022-12-17T03:38:31.503Z,-5
2022-12-17T03:39:31.497Z,-4.8
2022-12-17T03:40:31.676Z,-4.8
2022-12-17T03:41:31.737Z,-4.9
2022-12-17T03:42:31.757Z,-4.7
2022-12-17T03:43:38.469Z,-4.8
2022-12-17T03:44:31.889Z,-4.8
2022-12-17T03:45:32.062Z,-4.8
2022-12-17T03:46:32.147Z,-4.8
2022-12-17T03:47:32.162Z,-4.8
2022-12-17T03:48:32.116Z,-4.9
2022-12-17T03:49:32.211Z,-4.8
2022-12-17T03:50:32.241Z,-5.1
2022-12-17T03:51:33.260Z,-5.1
2022-12-17T03:52:32.422Z,-4.9
2022-12-17T03:53:32.611Z,-4.8
2022-12-17T03:54:32.521Z,-5
2022-12-17T03:55:32.583Z,-4.9
2022-12-17T03:56:32.662Z,-4.9
2022-12-17T03:57:32.703Z,-4.9
2022-12-17T03:58:32.807Z,-5
2022-12-17T03:59:32.805Z,-5
2022-12-17T04:00:37.873Z,-5.1
2022-12-17T04:01:33.269Z,-4.9
2022-12-17T04:02:33.074Z,-4.9
2022-12-17T04:03:33.277Z,-4.9
2022-12-17T04:04:33.063Z,-4.9
2022-12-17T04:05:33.032Z,-4.8
2022-12-17T04:06:33.122Z,-4.8
2022-12-17T04:07:33.168Z,-4.9
2022-12-17T04:08:33.301Z,-5
2022-12-17T04:09:35.250Z,-5.2
2022-12-17T04:10:33.349Z,-5.1
2022-12-17T04:11:33.473Z,-4.9
2022-12-17T04:12:33.429Z,-4.8
2022-12-17T04:13:37.379Z,-5
2022-12-17T04:14:33.568Z,-5
2022-12-17T04:15:33.791Z,-4.9
2022-12-17T04:16:33.665Z,-4.9
2022-12-17T04:17:33.754Z,-5.1
2022-12-17T04:18:33.807Z,-5
2022-12-17T04:19:33.854Z,-5.1
2022-12-17T04:20:33.866Z,-5.1
2022-12-17T04:21:33.910Z,-5.1
2022-12-17T04:22:33.926Z,-5.2
2022-12-17T04:23:34.247Z,-5.2
2022-12-17T04:24:34.073Z,-5.2
2022-12-17T04:25:34.158Z,-5.2
2022-12-17T04:26:34.220Z,-5.2
2022-12-17T04:27:36.570Z,-5.1
2022-12-17T04:28:34.296Z,-5.1
2022-12-17T04:29:34.331Z,-5
2022-12-17T04:31:31.845Z,-5.1
2022-12-17T04:31:40.089Z,-5
2022-12-17T04:32:35.460Z,-5.1
2022-12-17T04:33:34.844Z,-5.1
2022-12-17T04:34:34.541Z,-4.8
2022-12-17T04:35:34.627Z,-4.5
2022-12-17T04:36:34.677Z,-4.6
2022-12-17T04:37:34.728Z,-4.8
2022-12-17T04:38:34.800Z,-5
2022-12-17T04:39:34.842Z,-4.9
2022-12-17T04:40:34.859Z,-4.8
2022-12-17T04:41:34.924Z,-4.9
2022-12-17T04:42:34.987Z,-5
2022-12-17T04:43:35.493Z,-4.9
2022-12-17T04:44:35.114Z,-4.8
2022-12-17T04:45:35.221Z,-4.9
2022-12-17T04:46:35.287Z,-4.9
2022-12-17T04:47:35.242Z,-4.7
2022-12-17T04:48:40.335Z,-4.7
2022-12-17T04:49:35.352Z,-4.7
2022-12-17T04:50:35.435Z,-4.6
2022-12-17T04:51:35.539Z,-4.7
2022-12-17T04:52:35.650Z,-4.8
2022-12-17T04:53:36.126Z,-4.9
2022-12-17T04:54:35.819Z,-5
2022-12-17T04:55:36.115Z,-5.1
2022-12-17T04:56:35.954Z,-5.1
2022-12-17T04:57:35.997Z,-5.2
2022-12-17T04:58:36.140Z,-5
2022-12-17T04:59:36.154Z,-4.9
2022-12-17T05:00:36.224Z,-5
2022-12-17T05:01:36.380Z,-4.9
2022-12-17T05:02:41.035Z,-5.1
2022-12-17T05:03:36.760Z,-5
2022-12-17T05:04:36.468Z,-5.1
2022-12-17T05:05:36.745Z,-5
2022-12-17T05:06:36.890Z,-5
2022-12-17T05:07:36.636Z,-4.9
2022-12-17T05:08:41.172Z,-4.9
2022-12-17T05:09:36.751Z,-4.9
2022-12-17T05:10:36.839Z,-5
2022-12-17T05:11:36.926Z,-4.9
2022-12-17T05:12:36.961Z,-4.8
2022-12-17T05:13:37.437Z,-4.9
2022-12-17T05:14:37.378Z,-5.1
2022-12-17T05:15:37.234Z,-5
2022-12-17T05:16:37.225Z,-5
2022-12-17T05:17:37.316Z,-4.9
2022-12-17T05:18:38.386Z,-4.8
2022-12-17T05:19:37.392Z,-5
2022-12-17T05:20:37.471Z,-5.1
2022-12-17T05:21:37.535Z,-5.1
2022-12-17T05:22:37.541Z,-5.1
2022-12-17T05:23:37.857Z,-5.1
2022-12-17T05:24:37.765Z,-5.1
2022-12-17T05:25:37.787Z,-5.1
2022-12-17T05:26:37.864Z,-5.1
2022-12-17T05:27:37.887Z,-5.2
2022-12-17T05:28:37.944Z,-5.1
2022-12-17T05:29:37.984Z,-5.1
2022-12-17T05:30:38.055Z,-5.5
2022-12-17T05:31:38.142Z,-5.4
2022-12-17T05:32:38.119Z,-5.3
2022-12-17T05:33:38.729Z,-5.3
2022-12-17T05:34:38.245Z,-5.3
2022-12-17T05:35:38.446Z,-5.4
2022-12-17T05:36:38.395Z,-5.2
2022-12-17T05:37:38.400Z,-5.1
2022-12-17T05:38:38.450Z,-5.2
2022-12-17T05:39:38.520Z,-5.2
2022-12-17T05:40:38.563Z,-5.2
2022-12-17T05:41:38.626Z,-5.3
2022-12-17T05:42:38.648Z,-5.3
2022-12-17T05:43:39.112Z,-5.3
2022-12-17T05:44:38.783Z,-5.3
2022-12-17T05:45:38.867Z,-5.3
2022-12-17T05:46:39.051Z,-5.4
2022-12-17T05:47:39.019Z,-5.3
2022-12-17T05:48:39.047Z,-5.3
2022-12-17T05:49:39.096Z,-5.4
2022-12-17T05:50:39.146Z,-5.4
2022-12-17T05:51:39.348Z,-5.2
2022-12-17T05:52:39.264Z,-5.3
2022-12-17T05:53:39.524Z,-5.2
2022-12-17T05:54:39.361Z,-5.3
2022-12-17T05:55:39.392Z,-5.5
2022-12-17T05:56:39.756Z,-5.4
2022-12-17T05:57:39.534Z,-5.3
2022-12-17T05:58:39.569Z,-5.4
2022-12-17T05:59:39.640Z,-5.6
2022-12-17T06:00:39.980Z,-5.4
2022-12-17T06:01:39.878Z,-5.6
2022-12-17T06:02:39.908Z,-5.6
2022-12-17T06:03:40.509Z,-5.5
2022-12-17T06:04:40.012Z,-5.5
2022-12-17T06:05:40.096Z,-5.3
2022-12-17T06:06:40.209Z,-5.4
2022-12-17T06:07:40.237Z,-5.5
2022-12-17T06:08:40.247Z,-5.5
2022-12-17T06:09:40.329Z,-5.4
2022-12-17T06:10:40.443Z,-5.5
2022-12-17T06:11:40.497Z,-5.4
2022-12-17T06:12:40.535Z,-5.4
2022-12-17T06:13:40.604Z,-5.2
2022-12-17T06:14:40.713Z,-5.2
2022-12-17T06:15:40.745Z,-5.3
2022-12-17T06:16:40.831Z,-5.3
2022-12-17T06:17:40.876Z,-5.5
2022-12-17T06:18:40.935Z,-5.5
2022-12-17T06:19:40.999Z,-5.4
2022-12-17T06:20:41.035Z,-5.6
2022-12-17T06:21:41.098Z,-5.4
2022-12-17T06:22:41.147Z,-5.4
2022-12-17T06:23:41.177Z,-5.4
2022-12-17T06:24:45.644Z,-5.4
2022-12-17T06:25:41.324Z,-5.4
2022-12-17T06:26:41.434Z,-5.3
2022-12-17T06:27:41.465Z,-5.6
2022-12-17T06:28:41.513Z,-5.5
2022-12-17T06:29:41.591Z,-5.6
2022-12-17T06:30:41.662Z,-5.5
2022-12-17T06:31:41.817Z,-5.7
2022-12-17T06:32:41.790Z,-5.6
2022-12-17T06:33:41.845Z,-5.6
2022-12-17T06:34:41.912Z,-5.5
2022-12-17T06:35:41.999Z,-5.5
2022-12-17T06:36:42.058Z,-5.6
2022-12-17T06:37:42.233Z,-5.7
2022-12-17T06:38:42.186Z,-5.7
2022-12-17T06:39:42.246Z,-5.8
2022-12-17T06:40:42.300Z,-5.9
2022-12-17T06:41:42.355Z,-5.7
2022-12-17T06:42:42.438Z,-5.8
2022-12-17T06:43:42.447Z,-5.8
2022-12-17T06:44:42.456Z,-5.9
2022-12-17T06:45:43.537Z,-6
2022-12-17T06:46:42.670Z,-6.1
2022-12-17T06:47:42.914Z,-6.1
2022-12-17T06:48:43.193Z,-5.9
2022-12-17T06:49:42.744Z,-5.8
2022-12-17T06:50:42.845Z,-5.9
2022-12-17T06:51:42.964Z,-5.9
2022-12-17T06:52:42.933Z,-6
2022-12-17T06:53:42.988Z,-6.1
2022-12-17T06:54:43.038Z,-6
2022-12-17T06:55:43.060Z,-6
2022-12-17T06:56:43.168Z,-5.9
2022-12-17T06:57:50.435Z,-5.9
2022-12-17T06:58:43.224Z,-5.8
2022-12-17T06:59:43.500Z,-6
2022-12-17T07:00:43.388Z,-6.1
2022-12-17T07:01:43.547Z,-6.1
2022-12-17T07:02:49.760Z,-6.1
2022-12-17T07:03:49.160Z,-6
2022-12-17T07:04:43.549Z,-5.8
2022-12-17T07:05:43.743Z,-5.8
2022-12-17T07:06:49.773Z,-5.9
2022-12-17T07:07:43.744Z,-5.9
2022-12-17T07:08:43.790Z,-5.7
2022-12-17T07:09:43.787Z,-5.7
2022-12-17T07:10:44.244Z,-5.8
2022-12-17T07:11:43.976Z,-6
2022-12-17T07:12:44.019Z,-6.1
2022-12-17T07:13:44.137Z,-5.9
2022-12-17T07:14:45.334Z,-5.7
2022-12-17T07:15:44.248Z,-5.6
2022-12-17T07:16:49.779Z,-5.6
2022-12-17T07:17:44.404Z,-5.7
2022-12-17T07:18:44.490Z,-5.7
2022-12-17T07:19:44.588Z,-5.9
2022-12-17T07:20:44.629Z,-6.1
2022-12-17T07:21:44.684Z,-6.1
2022-12-17T07:22:44.789Z,-6.1
2022-12-17T07:23:44.805Z,-6
2022-12-17T07:24:45.944Z,-6
2022-12-17T07:25:46.272Z,-5.9
2022-12-17T07:26:45.019Z,-5.9
2022-12-17T07:27:45.077Z,-6
2022-12-17T07:28:45.120Z,-6.1
2022-12-17T07:29:45.265Z,-6
2022-12-17T07:30:55.587Z,-6
2022-12-17T07:31:45.385Z,-6
2022-12-17T07:32:55.495Z,-5.9
2022-12-17T07:33:45.467Z,-6
2022-12-17T07:34:46.546Z,-6
2022-12-17T07:35:45.861Z,-6.1
2022-12-17T07:36:45.682Z,-6.1
2022-12-17T07:37:45.721Z,-6.1
2022-12-17T07:38:45.800Z,-6.1
2022-12-17T07:39:45.879Z,-6.1
2022-12-17T07:40:51.230Z,-6
2022-12-17T07:41:45.978Z,-6.1
2022-12-17T07:42:56.003Z,-6.1
2022-12-17T07:43:51.262Z,-6.1
2022-12-17T07:44:46.105Z,-6.1
2022-12-17T07:45:46.195Z,-6
2022-12-17T07:46:46.211Z,-6.1
2022-12-17T07:47:46.307Z,-6.1
2022-12-17T07:48:46.417Z,-6.1
2022-12-17T07:49:51.415Z,-6.1
2022-12-17T07:50:51.508Z,-6.1
2022-12-17T07:51:48.647Z,-6.2
2022-12-17T07:52:47.686Z,-6.1
2022-12-17T07:53:46.648Z,-6.1
2022-12-17T07:54:56.783Z,-6.2
2022-12-17T07:55:46.820Z,-6.1
2022-12-17T07:56:46.821Z,-6
2022-12-17T07:57:47.194Z,-6
2022-12-17T07:58:47.330Z,-6.1
2022-12-17T07:59:51.946Z,-6
2022-12-17T08:00:49.364Z,-6.1
2022-12-17T08:01:47.149Z,-6.1
2022-12-17T08:02:48.075Z,-6.2
2022-12-17T08:03:47.293Z,-6.2
2022-12-17T08:04:47.279Z,-6.3
2022-12-17T08:05:52.593Z,-6.3
2022-12-17T08:06:47.437Z,-6.3
2022-12-17T08:07:47.655Z,-6.3
2022-12-17T08:08:52.659Z,-6.2
2022-12-17T08:09:48.121Z,-6.4
2022-12-17T08:10:52.897Z,-6.3
2022-12-17T08:11:47.777Z,-6.3
2022-12-17T08:12:47.739Z,-6.2
2022-12-17T08:13:48.119Z,-6.2
2022-12-17T08:14:48.966Z,-6.3
2022-12-17T08:16:00.305Z,-6.1
2022-12-17T08:16:48.057Z,-6
2022-12-17T08:17:47.956Z,-6
2022-12-17T08:18:47.992Z,-6.1
2022-12-17T08:19:48.160Z,-6.2
2022-12-17T08:20:48.063Z,-6.1
2022-12-17T08:21:48.132Z,-6
2022-12-17T08:22:53.217Z,-6
2022-12-17T08:23:48.411Z,-5.9
2022-12-17T08:24:48.417Z,-5.9
2022-12-17T08:25:48.575Z,-5.9
2022-12-17T08:26:48.647Z,-6.1
2022-12-17T08:27:56.629Z,-6.3
2022-12-17T08:28:50.957Z,-6.3
2022-12-17T08:29:49.169Z,-6.4
2022-12-17T08:30:50.211Z,-6.3
2022-12-17T08:31:48.964Z,-6.2
2022-12-17T08:32:53.919Z,-6.2
2022-12-17T08:33:54.063Z,-6.2
2022-12-17T08:34:49.240Z,-6.3
2022-12-17T08:35:49.248Z,-6.2
2022-12-17T08:36:59.559Z,-6.1
2022-12-17T08:37:51.958Z,-6.1
2022-12-17T08:38:49.359Z,-6.1
2022-12-17T08:39:49.399Z,-6.2
2022-12-17T08:40:49.471Z,-6.1
2022-12-17T08:42:04.206Z,-6.1
2022-12-17T08:42:49.605Z,-6
2022-12-17T08:45:20.126Z,-6.1
2022-12-17T08:46:51.479Z,-6.3
2022-12-17T08:47:49.938Z,-6.4
2022-12-17T08:48:50.015Z,-6.1
2022-12-17T08:49:50.049Z,-6.2
2022-12-17T08:50:50.091Z,-6.3
2022-12-17T08:51:50.240Z,-6.2
2022-12-17T08:52:50.289Z,-6.2
2022-12-17T08:53:50.320Z,-6.3
2022-12-17T08:54:50.355Z,-6.2
2022-12-17T08:55:50.398Z,-6.2
2022-12-17T08:56:50.554Z,-6.4
2022-12-17T08:57:50.614Z,-6.4
2022-12-17T08:58:53.298Z,-6.3
2022-12-17T08:59:50.664Z,-6.2
2022-12-17T09:00:50.765Z,-6.3
2022-12-17T09:01:50.873Z,-6.4
2022-12-17T09:02:50.898Z,-6.3
2022-12-17T09:03:50.837Z,-6.3
2022-12-17T09:04:50.903Z,-6.3
2022-12-17T09:05:50.902Z,-6.1
2022-12-17T09:06:51.059Z,-6.1
2022-12-17T09:07:51.062Z,-6.3
2022-12-17T09:08:51.105Z,-6
2022-12-17T09:09:51.192Z,-5.7
2022-12-17T09:10:56.162Z,-5.9
2022-12-17T09:11:51.207Z,-6
2022-12-17T09:12:52.171Z,-6.1
2022-12-17T09:13:51.304Z,-6.1
2022-12-17T09:14:51.334Z,-6.1
2022-12-17T09:15:51.600Z,-6.2
2022-12-17T09:16:51.495Z,-6.1
2022-12-17T09:17:51.415Z,-6.1
2022-12-17T09:18:51.451Z,-6.1
2022-12-17T09:19:51.472Z,-6.3
2022-12-17T09:21:00.190Z,-6.4
2022-12-17T09:21:51.906Z,-6.4
2022-12-17T09:22:56.533Z,-6.3
2022-12-17T09:23:51.563Z,-6.3
2022-12-17T09:24:56.617Z,-6.2
2022-12-17T09:25:56.528Z,-6.4
2022-12-17T09:26:51.760Z,-6.4
2022-12-17T09:27:52.025Z,-6.3
2022-12-17T09:28:52.041Z,-6.2
2022-12-17T09:29:52.091Z,-6.1
2022-12-17T09:30:52.123Z,-6.3
2022-12-17T09:31:52.195Z,-6.3
2022-12-17T09:32:52.025Z,-6.3
2022-12-17T09:33:52.039Z,-6.3
2022-12-17T09:34:52.051Z,-6.2
2022-12-17T09:35:52.288Z,-6.2
2022-12-17T09:36:52.570Z,-6.1
2022-12-17T09:37:52.381Z,-6.2
2022-12-17T09:38:52.661Z,-6.1
2022-12-17T09:39:52.889Z,-6.1
2022-12-17T09:40:52.924Z,-6.2
2022-12-17T09:41:52.957Z,-6.1
2022-12-17T09:42:56.937Z,-6.1
2022-12-17T09:43:54.218Z,-6
2022-12-17T09:44:59.335Z,-6
2022-12-17T09:45:57.835Z,-6.1
2022-12-17T09:46:52.907Z,-6
2022-12-17T09:47:52.951Z,-6
2022-12-17T09:48:53.070Z,-5.9
2022-12-17T09:49:53.092Z,-5.9
2022-12-17T09:50:53.181Z,-6
2022-12-17T09:51:53.331Z,-6
2022-12-17T09:52:53.392Z,-6.1
2022-12-17T09:53:53.400Z,-6.1
2022-12-17T09:54:57.789Z,-6.1
2022-12-17T09:55:53.703Z,-6
2022-12-17T09:56:53.859Z,-5.9
2022-12-17T09:57:53.600Z,-5.8
2022-12-17T09:58:53.626Z,-5.8
2022-12-17T09:59:53.673Z,-5.7
2022-12-17T10:00:57.625Z,-5.8
2022-12-17T10:01:53.961Z,-5.7
2022-12-17T10:02:54.116Z,-5.7
2022-12-17T10:03:53.996Z,-5.7
2022-12-17T10:04:54.337Z,-5.6
2022-12-17T10:05:59.031Z,-5.7
2022-12-17T10:06:54.066Z,-5.8
2022-12-17T10:07:54.532Z,-5.6
2022-12-17T10:08:54.199Z,-5.6
2022-12-17T10:09:56.125Z,-5.5
2022-12-17T10:10:54.404Z,-5.2
2022-12-17T10:11:59.406Z,-5.2
2022-12-17T10:12:54.758Z,-5.4
2022-12-17T10:13:54.458Z,-5.4
2022-12-17T10:14:54.513Z,-5.3
2022-12-17T10:15:54.601Z,-5.5
2022-12-17T10:17:08.529Z,-5.5
2022-12-17T10:17:54.616Z,-5.5
2022-12-17T10:18:57.360Z,-5.3
2022-12-17T10:19:54.709Z,-5.2
2022-12-17T10:20:54.770Z,-5.1
2022-12-17T10:21:54.779Z,-5
2022-12-17T10:22:54.784Z,-4.9
2022-12-17T10:23:54.769Z,-5
2022-12-17T10:24:54.813Z,-4.9
2022-12-17T10:25:55.113Z,-5.1
2022-12-17T10:26:54.998Z,-5.1
2022-12-17T10:27:55.067Z,-4.6
2022-12-17T10:28:55.036Z,-4.5
2022-12-17T10:29:55.069Z,-4.6
2022-12-17T10:30:55.097Z,-4.5
2022-12-17T10:31:55.344Z,-4.7
2022-12-17T10:32:57.230Z,-4.8
2022-12-17T10:33:55.318Z,-4.8
2022-12-17T10:34:56.117Z,-4.6
2022-12-17T10:36:00.269Z,-4.5
2022-12-17T10:36:55.373Z,-4.4
2022-12-17T10:37:55.338Z,-4.4
2022-12-17T10:38:55.338Z,-4.4
2022-12-17T10:39:55.354Z,-4.6
2022-12-17T10:40:55.371Z,-4.5
2022-12-17T10:41:55.413Z,-4.5
2022-12-17T10:42:55.493Z,-4.1
2022-12-17T10:43:55.508Z,-4.2
2022-12-17T10:44:55.488Z,-4.1
2022-12-17T10:45:55.605Z,-3.8
2022-12-17T10:46:55.598Z,-3.5
2022-12-17T10:47:55.627Z,-3.3
2022-12-17T10:48:55.733Z,-3
2022-12-17T10:49:55.774Z,-3
2022-12-17T10:50:56.467Z,-2.8
2022-12-17T10:51:55.960Z,-2.5
2022-12-17T10:53:06.065Z,-2.6
2022-12-17T10:53:56.111Z,-2.8
2022-12-17T10:54:56.172Z,-2.6
2022-12-17T10:55:56.289Z,-2.2
2022-12-17T10:56:56.367Z,-2.2
2022-12-17T10:57:56.445Z,-2.1
2022-12-17T10:58:56.499Z,-2.3
2022-12-17T10:59:56.539Z,-2.5
2022-12-17T11:00:56.651Z,-2.4
2022-12-17T11:01:56.907Z,-2.4
2022-12-17T11:02:56.959Z,-2.3
2022-12-17T11:03:57.031Z,-1.9
2022-12-17T11:04:57.036Z,-1.7
2022-12-17T11:05:59.733Z,-1.2
2022-12-17T11:06:57.157Z,-1
2022-12-17T11:07:57.256Z,-0.9
2022-12-17T11:08:57.271Z,-1
2022-12-17T11:09:57.293Z,-1.3
2022-12-17T11:10:57.335Z,-0.9
2022-12-17T11:11:57.389Z,-0.9
2022-12-17T11:12:57.478Z,-0.5
2022-12-17T11:13:57.586Z,-0.5
2022-12-17T11:14:57.924Z,-0.7
2022-12-17T11:15:57.752Z,-0.7
2022-12-17T11:16:57.842Z,-0.9
2022-12-17T11:17:57.855Z,-0.9
2022-12-17T11:18:57.920Z,-0.9
2022-12-17T11:19:57.995Z,-0.8
2022-12-17T11:20:58.091Z,-0.9
2022-12-17T11:21:58.089Z,-0.9
2022-12-17T11:22:58.226Z,-0.9
2022-12-17T11:23:58.228Z,-0.7
2022-12-17T11:25:05.177Z,-1
2022-12-17T11:25:58.255Z,-1.1
2022-12-17T11:26:59.733Z,-0.9
2022-12-17T11:27:58.379Z,-0.7
2022-12-17T11:28:58.367Z,-0.5
2022-12-17T11:29:58.397Z,-0.6
2022-12-17T11:30:58.475Z,-0.5
2022-12-17T11:31:58.469Z,-0.5
2022-12-17T11:32:58.450Z,-0.7
2022-12-17T11:33:58.577Z,-1
2022-12-17T11:34:58.513Z,-0.9
2022-12-17T11:35:58.518Z,-0.9
2022-12-17T11:36:58.690Z,-0.5
2022-12-17T11:37:58.664Z,-0.2
2022-12-17T11:39:04.775Z,-0.5
2022-12-17T11:39:58.692Z,-0.7
2022-12-17T11:40:58.719Z,-0.6
2022-12-17T11:41:58.735Z,-0.7
2022-12-17T11:42:58.814Z,-0.6
2022-12-17T11:43:58.843Z,-0.5
2022-12-17T11:44:58.839Z,-0.3
2022-12-17T11:45:58.933Z,-0.3
2022-12-17T11:46:58.970Z,-0.6
2022-12-17T11:47:59.501Z,-0.4
2022-12-17T11:48:58.985Z,-0.5
2022-12-17T11:49:58.997Z,-0.4
2022-12-17T11:50:59.008Z,-0.3
2022-12-17T11:51:59.080Z,-0.1
2022-12-17T11:52:59.139Z,0
2022-12-17T11:53:59.124Z,0.1
2022-12-17T11:54:59.197Z,0.4
2022-12-17T11:55:59.187Z,-0.1
2022-12-17T11:56:59.211Z,-0.3
2022-12-17T11:57:59.319Z,-0.3
2022-12-17T11:58:59.449Z,-0.3
2022-12-17T12:00:03.971Z,-0.1
2022-12-17T12:00:59.548Z,0.2
2022-12-17T12:01:59.692Z,0.2
2022-12-17T12:02:59.891Z,0.2
2022-12-17T12:03:59.862Z,0.3
2022-12-17T12:04:59.878Z,0.3
2022-12-17T12:05:59.896Z,0.1
2022-12-17T12:06:59.978Z,-0.1
2022-12-17T12:08:00.096Z,-0.1
2022-12-17T12:09:00.237Z,-0.2
2022-12-17T12:10:00.166Z,0.2
2022-12-17T12:11:00.205Z,0.2
2022-12-17T12:12:00.299Z,0.3
2022-12-17T12:13:00.365Z,0
2022-12-17T12:14:00.467Z,-0.1
2022-12-17T12:15:00.520Z,-0.3
2022-12-17T12:16:00.700Z,-0.3
2022-12-17T12:17:00.686Z,-0.2
2022-12-17T12:18:00.706Z,-0.1
2022-12-17T12:19:00.842Z,-0.1
2022-12-17T12:20:00.858Z,0
2022-12-17T12:21:00.900Z,0
2022-12-17T12:22:00.931Z,-0.2
2022-12-17T12:23:01.009Z,-0.2
2022-12-17T12:24:01.068Z,-0.1
2022-12-17T12:25:01.149Z,0
2022-12-17T12:26:01.197Z,0.2
2022-12-17T12:27:06.262Z,0.2
2022-12-17T12:28:01.435Z,0.2
2022-12-17T12:29:01.382Z,0.3
2022-12-17T12:30:37.594Z,0.3
2022-12-17T12:31:01.798Z,0
2022-12-17T12:32:02.200Z,0
2022-12-17T12:33:05.557Z,0.4
2022-12-17T12:34:01.592Z,0.4
2022-12-17T12:35:01.679Z,0.8
2022-12-17T12:36:01.692Z,0.4
2022-12-17T12:37:09.910Z,0.3
2022-12-17T12:38:06.785Z,0
2022-12-17T12:39:01.798Z,-0.1
2022-12-17T12:40:01.840Z,-0.2
2022-12-17T12:41:01.915Z,-0.1
2022-12-17T12:42:01.928Z,-0.1
2022-12-17T12:43:01.943Z,0.2
2022-12-17T12:44:02.020Z,0.3
2022-12-17T12:45:02.014Z,0.3
2022-12-17T12:46:02.123Z,0.3
2022-12-17T12:47:02.074Z,0.2
2022-12-17T12:48:02.178Z,0.3
2022-12-17T12:49:02.207Z,0.2
2022-12-17T12:50:02.340Z,0.2
2022-12-17T12:51:02.328Z,0.1
2022-12-17T12:52:02.397Z,-0.1
2022-12-17T12:53:02.349Z,-0.1
2022-12-17T12:54:02.408Z,-0.1
2022-12-17T12:55:07.464Z,-0.1
2022-12-17T12:56:02.509Z,-0.2
2022-12-17T12:57:02.553Z,-0.1
2022-12-17T12:59:05.330Z,-0.3
2022-12-17T12:59:10.191Z,-0.5
2022-12-17T13:00:02.712Z,-0.8
2022-12-17T13:01:02.732Z,-0.8
2022-12-17T13:02:02.773Z,-0.8
2022-12-17T13:03:02.808Z,-0.7
2022-12-17T13:04:02.722Z,-0.8
2022-12-17T13:05:02.776Z,-0.9
2022-12-17T13:06:02.826Z,-0.8
2022-12-17T13:07:04.358Z,-0.8
2022-12-17T13:08:02.916Z,-0.8
2022-12-17T13:09:02.924Z,-0.8
2022-12-17T13:10:02.981Z,-0.4
2022-12-17T13:11:03.066Z,-0.6
2022-12-17T13:12:03.087Z,-0.7
2022-12-17T13:13:03.204Z,-0.8
2022-12-17T13:14:03.329Z,-0.7
2022-12-17T13:15:03.380Z,-0.8
2022-12-17T13:16:08.532Z,-0.9
2022-12-17T13:17:08.554Z,-0.8
2022-12-17T13:18:03.601Z,-0.9
2022-12-17T13:19:18.228Z,-0.9
2022-12-17T13:20:03.747Z,-1
2022-12-17T13:21:03.782Z,-0.9
2022-12-17T13:22:03.925Z,-1.1
2022-12-17T13:23:03.933Z,-1
2022-12-17T13:24:04.095Z,-1
2022-12-17T13:25:04.133Z,-1.1
2022-12-17T13:26:04.215Z,-1.1
2022-12-17T13:27:04.224Z,-1.1
2022-12-17T13:28:04.330Z,-1.1